Hlavní strana
METAR-TAF:

METAR-TAF

Letiště :

Urgench, Uzbekistán

zeměpisná šířka: 41-35N, zeměpisná délka: 060-38-42E, výška: 98 m

Aktuální stav počasí

Zpráva byla vytvořena před 33 minutami, v 18:30 UTC
Severozápadní vítr 6 kt
Teplota 29°C
Vlhkost vzduchu 43%
Tlak 1007 hPa
Viditelnost 10 km a více
Žádná oblačnost pod 1500 m, nevyskytují se cumulonimby.

METAR: UTNU 251830Z 31006KT CAVOK 29/15 Q1007 R31/CLRD70 NOSIG

Čas: 00:03 (19:03 UTC)

Předpověď počasí

Zpráva byla vytvořena před 2 hodinami a 1 minutami, v 17:02 UTC
Předpověď platná od 25 v 18 UTC do 26 v 18 UTC
Severní vítr 10 kt s nárazy do 20 kt
Viditelnost: 8000 m
Dočasný
od 25 v 18 UTC do 25 v 24 UTC
vítr z různých směrů 4 kt

TAF: UTNU 251702Z 2518/2618 35010G20KT 8000 NSC TEMPO 2518/2524 VRB04KT

Stav a předpovědi počasí z více než 4 000 letišť (zprávy METAR a TAF).

Červené a žluté tečky na mapě představují dostupné meteorologické stanice.

Když kurzor umístíte na tečku, zobrazí se název stanice.

Pak kliknutím zobrazíte stav a předpověď počasí.

Chcete-li změnit mapu, kliknutím na zelené tlačítko se znaménkem +mapu přiblížíte, kliknutím na zelené tlačítko se znaménkem – mapu oddálíte a kliknutím na zelené šipky přejdete na sousední mapy.


METAR-TAF: